Flight Track Log - Related Links

Times and Time Zones

All times are in EDT time to prevent confusion due to time zone crossing. See the N48FH flight status page for this flight to view local times or setup timezone preferences in your user account.

Time Position Orientation Groundspeed Altitude Reporting Facility
EDT Latitude Longitude Course Direction KTS MPH feet Rate Location/Type
Fri 12:57:35 PM 27.7653 -97.5014 191° South 87 100 500  Level Houston Center
Fri 12:58:42 PM 27.7364 -97.5075 191° South 90 104 1,600 1,021 Climbing Houston Center
Fri 12:59:09 PM 27.7275 -97.5075 180° South 88 101 2,100 1,082 Climbing Houston Center
Fri 12:59:43 PM 27.7131 -97.5061 175° South 89 102 2,700 968 Climbing Houston Center
Fri 01:00:11 PM 27.7017 -97.5064 181° South 88 101 3,100 873 Climbing Houston Center
Fri 01:00:38 PM 27.6897 -97.5044 172° South 86 99 3,500 762 Climbing Houston Center
Fri 01:01:14 PM 27.6750 -97.5031 175° South 88 101 3,900 673 Climbing Houston Center
Fri 01:02:16 PM 27.6486 -97.5031 180° South 89 102 4,600 629 Climbing Houston Center
Fri 01:03:18 PM 27.6211 -97.5025 179° South 93 107 5,200 600 Climbing Houston Center
Fri 01:03:46 PM 27.6075 -97.5017 177° South 99 114 5,500 581 Climbing Houston Center
Fri 01:04:20 PM 27.5928 -97.5008 177° South 96 110 5,800 313 Climbing Houston Center
Fri 01:05:22 PM 27.5608 -97.4997 178° South 110 127 6,000 146 Climbing Houston Center
Fri 01:05:42 PM 27.5461 -97.4983 175° South 124 143 6,000  Level Houston Center
Fri 01:06:25 PM 27.5189 -97.4969 177° South 133 153 6,000  Level Houston Center
Fri 01:07:27 PM 27.4800 -97.4950 177° South 134 154 6,000  Level Houston Center
Fri 01:08:29 PM 27.4411 -97.4931 177° South 134 154 6,000 -72 Level Houston Center
Fri 01:08:50 PM 27.4275 -97.4931 180° South 137 158 5,900  Descending Houston Center
Fri 01:09:31 PM 27.4019 -97.4908 176° South 135 155 6,000  Climbing Houston Center
Fri 01:09:51 PM 27.3894 -97.4914 182° South 137 158 5,900 -97 Descending Houston Center
Fri 01:10:33 PM 27.3628 -97.4892 176° South 135 155 5,900  Level Houston Center
Fri 01:10:58 PM 27.3469 -97.4878 176° South 141 162 5,900 95 Level Houston Center
Fri 01:11:36 PM 27.3219 -97.4867 178° South 139 160 6,000 98 Climbing Houston Center
Fri 01:11:59 PM 27.3047 -97.4864 179° South 143 165 6,000 -97 Level Houston Center
Fri 01:12:38 PM 27.2786 -97.4856 178° South 140 161 5,900  Descending Houston Center
Fri 01:13:00 PM 27.2667 -97.4844 175° South 144 166 6,000  Climbing Houston Center
Fri 01:13:40 PM 27.2383 -97.4836 179° South 140 161 5,900 -98 Descending Houston Center
Fri 01:14:01 PM 27.2244 -97.4833 179° South 141 162 5,900  Level Houston Center
Fri 01:14:42 PM 27.1981 -97.4817 177° South 141 162 5,900  Level Houston Center
Fri 01:15:44 PM 27.1572 -97.4789 177° South 141 162 5,900 48 Level Houston Center
Fri 01:16:47 PM 27.1172 -97.4775 178° South 141 162 6,000 48 Climbing Houston Center
Fri 01:17:49 PM 27.0772 -97.4758 178° South 140 161 6,000  Level Houston Center
Fri 01:18:04 PM 27.0658 -97.4767 184° South 141 162 6,000 -97 Level Houston Center
Fri 01:18:51 PM 27.0339 -97.4744 176° South 141 162 5,900  Descending Houston Center
Fri 01:19:53 PM 26.9939 -97.4725 178° South 141 162 6,000 48 Climbing Houston Center
Fri 01:20:55 PM 26.9536 -97.4697 176° South 141 162 6,000  Level Houston Center
Fri 01:21:58 PM 26.9125 -97.4689 179° South 142 163 6,000 -48 Level Houston Center
Fri 01:23:00 PM 26.8708 -97.4661 177° South 142 163 5,900  Descending Houston Center
Fri 01:24:02 PM 26.8283 -97.4639 177° South 142 163 6,000 51 Climbing Houston Center
Fri 01:24:58 PM 26.7906 -97.4625 178° South 143 165 6,000  Level Houston Center
Fri 01:26:06 PM 26.7464 -97.4603 177° South 142 163 6,000 -47 Level Houston Center
Fri 01:27:06 PM 26.7083 -97.4597 179° South 145 167 5,900  Descending Houston Center
Fri 01:28:06 PM 26.6658 -97.4561 176° South 143 165 6,000 52 Climbing Houston Center
Fri 01:29:01 PM 26.6322 -97.4561 180° South 142 163 6,000  Level Houston Center
Fri 01:29:13 PM 26.6236 -97.4553 175° South 143 165 6,000  Level Houston Center
Fri 01:30:02 PM 26.5878 -97.4550 180° South 142 163 6,000 -97 Level Houston Center
Fri 01:30:15 PM 26.5839 -97.4547 176° South 143 165 5,900  Descending Houston Center
Fri 01:31:09 PM 26.5453 -97.4514 176° South 142 163 6,000 48 Climbing Houston Center
Fri 01:32:19 PM 26.5006 -97.4494 178° South 144 166 6,000  Level Houston Center
Fri 01:33:16 PM 26.4586 -97.4492 180° South 144 166 6,000  Level Houston Center
Fri 01:34:17 PM 26.4206 -97.4472 177° South 143 165 6,000 -138 Level Houston Center
Fri 01:35:26 PM 26.3736 -97.4456 178° South 147 169 5,700 -344 Descending Houston Center
Fri 01:36:19 PM 26.3361 -97.4447 179° South 154 177 5,300 -387 Descending Houston Center
Fri 01:37:30 PM 26.2897 -97.4425 178° South 150 173 4,900 -362 Descending Houston Center
Fri 01:38:15 PM 26.2581 -97.4414 178° South 146 168 4,600 -381 Descending Houston Center
Fri 01:38:33 PM 26.2453 -97.4394 172° South 149 171 4,500 -364 Descending Houston Center
Fri 01:39:21 PM 26.2133 -97.4381 178° South 147 169 4,200 -290 Descending Houston Center
Fri 01:39:35 PM 26.2042 -97.4358 168° South 149 171 4,200 -367 Level Houston Center
Fri 01:40:10 PM 26.1772 -97.4361 181° South 147 169 3,900 -484 Descending Houston Center
Fri 01:40:37 PM 26.1606 -97.4344 175° South 148 170 3,700 -393 Descending Houston Center
Fri 01:41:11 PM 26.1392 -97.4342 179° South 140 161 3,500 -387 Descending Houston Center
Fri 01:41:39 PM 26.1228 -97.4336 178° South 139 160 3,300 -590 Descending Houston Center
Fri 01:42:12 PM 26.1014 -97.4347 183° South 135 155 2,900 -677 Descending Houston Center
Fri 01:42:41 PM 26.0806 -97.4336 177° South 139 160 2,600 -500 Descending Houston Center
Fri 01:43:12 PM 26.0611 -97.4331 179° South 140 161 2,400 -381 Descending Houston Center
Fri 01:43:44 PM 26.0419 -97.4306 173° South 139 160 2,200 -492 Descending Houston Center
Fri 01:44:13 PM 26.0253 -97.4308 181° South 137 158 1,900 -484 Descending Houston Center
Fri 01:44:46 PM 26.0031 -97.4272 172° South 135 155 1,700 -393 Descending Houston Center
Fri 01:45:14 PM 25.9889 -97.4267 178° South 118 136 1,500 -387 Descending Houston Center
Fri 01:45:48 PM 25.9736 -97.4269 181° South 110 127 1,300 -448 Descending Houston Center
Fri 01:46:21 PM 25.9575 -97.4286 185° South 101 116 1,000 -484 Descending Houston Center
Fri 01:46:50 PM 25.9442 -97.4283 179° South 109 125 800 -462 Descending Houston Center
Fri 01:47:52 PM 25.9219 -97.4297 183° South 91 105 300 -484 Descending Houston Center
Fri 01:49:00 PM 25.9068 -97.4258 180° South  Level Estimated

Login

Don't have an account? Register now (free) for customized features, flight alerts, and more!